createdAt,value
2019-02-26T00:01:59.776Z,0.10
2019-02-26T00:04:45.772Z,0.20
2019-02-26T00:07:32.303Z,0.10
2019-02-26T00:10:19.775Z,0.10
2019-02-26T00:13:07.220Z,0.10
2019-02-26T00:15:53.600Z,0.30
2019-02-26T00:18:40.041Z,0.20
2019-02-26T00:21:28.287Z,1.00
2019-02-26T00:24:16.676Z,0.00
2019-02-26T00:27:05.418Z,-0.50
2019-02-26T00:29:53.076Z,0.00
2019-02-26T00:32:40.553Z,-0.30
2019-02-26T00:35:28.779Z,0.00
2019-02-26T00:38:17.276Z,0.20
2019-02-26T00:41:04.358Z,-0.20
2019-02-26T00:43:53.550Z,-0.30
2019-02-26T00:46:34.841Z,-0.30
2019-02-26T00:49:14.749Z,-0.30
2019-02-26T00:51:54.888Z,1.20
2019-02-26T00:54:36.541Z,-0.40
2019-02-26T00:57:15.941Z,-0.30
2019-02-26T00:59:55.689Z,-0.30
2019-02-26T01:02:35.822Z,-0.20
2019-02-26T01:05:15.680Z,1.50
2019-02-26T01:07:55.070Z,-0.50
2019-02-26T01:10:23.643Z,-0.50
2019-02-26T01:13:10.299Z,-0.50
2019-02-26T01:15:56.687Z,0.00
2019-02-26T01:18:44.390Z,1.10
2019-02-26T01:21:33.458Z,-0.50
2019-02-26T01:24:21.364Z,-0.50
2019-02-26T01:27:08.310Z,-1.60
2019-02-26T01:29:55.921Z,-0.50
2019-02-26T01:32:43.041Z,-1.20
2019-02-26T01:35:30.818Z,-0.60
2019-02-26T01:38:18.812Z,-0.70
2019-02-26T01:41:06.134Z,-0.70
2019-02-26T01:43:52.522Z,-0.60
2019-02-26T01:46:32.873Z,-0.60
2019-02-26T01:49:13.205Z,-0.60
2019-02-26T01:51:53.905Z,0.20
2019-02-26T01:54:35.585Z,-0.60
2019-02-26T01:57:17.318Z,-0.40
2019-02-26T01:59:57.705Z,-0.50
2019-02-26T02:02:37.740Z,-0.60
2019-02-26T02:05:19.680Z,-1.60
2019-02-26T02:07:59.663Z,-0.90
2019-02-26T02:10:38.821Z,-1.00
2019-02-26T02:13:18.137Z,-1.00
2019-02-26T02:15:59.725Z,-1.30
2019-02-26T02:18:43.794Z,-1.10
2019-02-26T02:21:23.572Z,-1.20
2019-02-26T02:24:02.549Z,-1.80
2019-02-26T02:26:45.298Z,-1.10
2019-02-26T02:29:28.080Z,-1.10
2019-02-26T02:32:07.700Z,-1.10
2019-02-26T02:34:47.046Z,0.50
2019-02-26T02:37:29.432Z,-1.20
2019-02-26T02:40:09.144Z,-1.20
2019-02-26T02:42:49.554Z,-1.20
2019-02-26T02:45:29.537Z,-1.40
2019-02-26T02:48:11.596Z,0.80
2019-02-26T02:50:51.258Z,-1.00
2019-02-26T02:53:32.343Z,-1.10
2019-02-26T02:56:12.944Z,0.70
2019-02-26T02:58:53.573Z,-1.30
2019-02-26T03:01:32.722Z,-1.30
2019-02-26T03:04:14.754Z,-1.30
2019-02-26T03:06:55.543Z,-1.10
2019-02-26T03:09:37.797Z,0.50
2019-02-26T03:12:17.960Z,-2.50
2019-02-26T03:14:59.865Z,-0.90
2019-02-26T03:17:38.329Z,-2.10
2019-02-26T03:20:18.687Z,-1.40
2019-02-26T03:22:58.374Z,-2.00
2019-02-26T03:25:38.501Z,-1.10
2019-02-26T03:28:18.807Z,-1.60
2019-02-26T03:30:58.771Z,-1.30
2019-02-26T03:33:38.726Z,-1.40
2019-02-26T03:36:19.232Z,-1.40
2019-02-26T03:39:00.762Z,-1.50
2019-02-26T03:41:39.738Z,-1.30
2019-02-26T03:44:20.005Z,-0.60
2019-02-26T03:46:59.903Z,-0.40
2019-02-26T03:49:41.738Z,-1.50
2019-02-26T03:52:20.175Z,-0.70
2019-02-26T03:55:02.868Z,0.30
2019-02-26T03:57:46.911Z,-1.30
2019-02-26T04:03:25.299Z,-1.20
2019-02-26T04:06:12.318Z,-1.10
2019-02-26T04:08:58.797Z,-2.70
2019-02-26T04:11:47.747Z,0.60
2019-02-26T04:23:51.578Z,-1.40
2019-02-26T04:33:49.908Z,-2.00
2019-02-26T04:37:12.801Z,-1.50
2019-02-26T04:40:21.180Z,-1.80
2019-02-26T04:43:34.188Z,-1.30
2019-02-26T04:49:17.164Z,-2.00
2019-02-26T04:52:22.940Z,-1.50
2019-02-26T04:57:34.209Z,-1.60
2019-02-26T05:00:14.565Z,-1.70
2019-02-26T05:02:54.206Z,-1.50
2019-02-26T05:05:37.093Z,-1.60
2019-02-26T05:08:17.630Z,-1.40
2019-02-26T05:10:59.903Z,-1.40
2019-02-26T05:13:39.660Z,-1.40
2019-02-26T05:16:19.933Z,-1.60
2019-02-26T05:19:00.042Z,-1.10
2019-02-26T05:21:40.194Z,-1.60
2019-02-26T05:24:21.824Z,-1.70
2019-02-26T05:27:01.270Z,-1.80
2019-02-26T05:29:43.442Z,-1.80
2019-02-26T05:32:44.022Z,-1.50
2019-02-26T05:35:09.133Z,-1.20
2019-02-26T05:37:38.205Z,-2.00
2019-02-26T05:40:07.092Z,-1.70
2019-02-26T05:42:34.062Z,-1.70
2019-02-26T05:45:03.849Z,-1.70
2019-02-26T05:47:29.608Z,-1.70
2019-02-26T05:49:56.590Z,-1.80
2019-02-26T05:52:43.037Z,-1.80
2019-02-26T05:55:29.446Z,-1.20
2019-02-26T05:58:18.822Z,-1.60
2019-02-26T06:01:04.497Z,-1.70
2019-02-26T06:03:51.888Z,-2.30
2019-02-26T06:06:39.273Z,-1.60
2019-02-26T06:09:28.015Z,-1.50
2019-02-26T06:12:14.263Z,-1.40
2019-02-26T06:15:04.972Z,-1.50
2019-02-26T06:17:51.457Z,-1.40
2019-02-26T06:20:37.761Z,-1.50
2019-02-26T06:23:25.431Z,0.60
2019-02-26T06:26:14.360Z,-1.30
2019-02-26T06:29:00.979Z,-1.00
2019-02-26T06:31:49.338Z,0.40
2019-02-26T06:34:36.044Z,-1.20
2019-02-26T06:37:23.486Z,-1.20
2019-02-26T06:40:11.169Z,-1.30
2019-02-26T06:42:57.590Z,-0.60
2019-02-26T06:45:41.252Z,-0.80
2019-02-26T06:48:24.463Z,-0.30
2019-02-26T06:51:04.657Z,-0.20
2019-02-26T06:53:47.092Z,0.10
2019-02-26T06:56:25.608Z,0.30
2019-02-26T06:59:07.439Z,0.50
2019-02-26T07:01:47.829Z,0.40
2019-02-26T07:04:30.115Z,0.40
2019-02-26T07:07:12.203Z,0.50
2019-02-26T07:09:50.616Z,0.50
2019-02-26T07:12:30.905Z,1.10
2019-02-26T07:15:12.119Z,0.80
2019-02-26T07:17:52.055Z,1.30
2019-02-26T07:20:34.345Z,1.20
2019-02-26T07:23:15.545Z,1.30
2019-02-26T07:25:55.067Z,3.00
2019-02-26T07:28:34.881Z,3.90
2019-02-26T07:31:15.038Z,5.00
2019-02-26T07:33:56.396Z,5.00
2019-02-26T07:36:36.829Z,3.80
2019-02-26T07:39:18.224Z,3.50
2019-02-26T07:41:57.978Z,5.60
2019-02-26T07:44:38.072Z,5.30
2019-02-26T07:47:18.079Z,7.40
2019-02-26T07:50:00.875Z,6.10
2019-02-26T07:52:40.257Z,4.40
2019-02-26T07:55:20.241Z,4.70
2019-02-26T07:58:00.401Z,2.40
2019-02-26T08:00:43.262Z,3.20
2019-02-26T08:03:24.199Z,3.30
2019-02-26T08:06:06.294Z,3.60
2019-02-26T08:08:48.444Z,3.80
2019-02-26T08:11:26.182Z,3.70
2019-02-26T08:14:06.259Z,3.50
2019-02-26T08:16:49.227Z,3.50
2019-02-26T08:19:29.751Z,3.60
2019-02-26T08:22:09.542Z,4.40
2019-02-26T08:24:50.873Z,5.10
2019-02-26T08:27:33.427Z,5.20
2019-02-26T08:30:14.807Z,4.90
2019-02-26T08:32:56.394Z,5.60
2019-02-26T08:35:36.753Z,6.00
2019-02-26T08:38:17.034Z,5.70
2019-02-26T08:40:57.116Z,5.90
2019-02-26T08:43:36.994Z,6.50
2019-02-26T08:46:18.880Z,6.50
2019-02-26T08:49:07.887Z,6.40
2019-02-26T08:51:40.860Z,6.70
2019-02-26T08:54:23.737Z,6.80
2019-02-26T08:57:02.897Z,6.50
2019-02-26T08:59:45.240Z,7.30
2019-02-26T09:05:25.666Z,8.30
2019-02-26T09:11:03.905Z,14.90
2019-02-26T09:16:43.349Z,16.40
2019-02-26T09:22:23.425Z,17.90
2019-02-26T09:25:02.786Z,18.20
2019-02-26T09:27:43.151Z,17.80
2019-02-26T09:33:38.210Z,18.40
2019-02-26T09:36:20.493Z,18.70
2019-02-26T09:41:59.332Z,19.10
2019-02-26T09:50:38.493Z,20.70
2019-02-26T09:53:18.441Z,20.00
2019-02-26T09:55:58.661Z,21.50
2019-02-26T09:58:40.419Z,21.30
2019-02-26T10:01:19.661Z,20.10
2019-02-26T10:04:01.322Z,20.10
2019-02-26T10:06:42.567Z,20.20
2019-02-26T10:12:22.126Z,21.70
2019-02-26T10:15:03.159Z,23.50
2019-02-26T10:20:56.200Z,23.00
2019-02-26T10:23:36.226Z,22.70
2019-02-26T10:26:18.131Z,20.50
2019-02-26T10:29:04.094Z,20.60
2019-02-26T10:31:41.097Z,22.70
2019-02-26T10:37:19.492Z,21.90
2019-02-26T10:42:58.013Z,22.70
2019-02-26T10:54:40.213Z,21.60
2019-02-26T11:00:17.086Z,23.40
2019-02-26T11:02:56.445Z,23.50
2019-02-26T11:05:37.721Z,24.90
2019-02-26T11:08:08.802Z,23.50
2019-02-26T11:10:53.035Z,22.80
2019-02-26T11:13:40.700Z,23.60
2019-02-26T11:16:28.862Z,23.90
2019-02-26T11:19:16.133Z,23.10
2019-02-26T11:22:04.134Z,24.50
2019-02-26T11:24:53.303Z,22.40
2019-02-26T11:30:30.236Z,24.60
2019-02-26T11:33:16.626Z,24.10
2019-02-26T11:36:05.287Z,24.70
2019-02-26T11:38:51.795Z,24.90
2019-02-26T11:41:38.182Z,22.20
2019-02-26T11:50:10.080Z,16.60
2019-02-26T11:52:54.316Z,16.20
2019-02-26T11:55:32.431Z,15.90
2019-02-26T11:58:15.737Z,16.50
2019-02-26T12:00:57.377Z,15.80
2019-02-26T12:03:38.969Z,15.60
2019-02-26T12:06:18.342Z,15.10
2019-02-26T12:08:58.722Z,15.20
2019-02-26T12:11:38.777Z,14.40
2019-02-26T12:14:19.473Z,14.90
2019-02-26T12:17:00.071Z,14.80
2019-02-26T12:19:40.200Z,15.00
2019-02-26T12:22:22.580Z,15.00
2019-02-26T12:25:05.124Z,15.10
2019-02-26T12:27:45.640Z,14.90
2019-02-26T12:30:25.802Z,15.00
2019-02-26T12:33:07.123Z,15.30
2019-02-26T12:35:47.252Z,14.90
2019-02-26T12:38:26.396Z,15.40
2019-02-26T12:41:08.623Z,15.30
2019-02-26T12:43:47.569Z,15.50
2019-02-26T12:46:30.936Z,15.50
2019-02-26T12:49:12.048Z,16.20
2019-02-26T12:51:53.747Z,15.80
2019-02-26T12:54:36.445Z,16.60
2019-02-26T12:57:16.979Z,16.60
2019-02-26T12:59:56.766Z,16.80
2019-02-26T13:02:39.766Z,16.60
2019-02-26T13:05:19.610Z,17.40
2019-02-26T13:08:01.026Z,18.80
2019-02-26T13:10:42.425Z,19.20
2019-02-26T13:13:21.701Z,21.60
2019-02-26T13:16:01.453Z,23.00
2019-02-26T13:18:41.534Z,23.00
2019-02-26T13:21:20.788Z,22.10
2019-02-26T13:24:11.415Z,21.70
2019-02-26T13:26:47.380Z,22.10
2019-02-26T13:29:25.257Z,22.60
2019-02-26T13:32:07.704Z,22.40
2019-02-26T13:34:47.284Z,22.40
2019-02-26T13:37:31.514Z,22.90
2019-02-26T13:40:09.482Z,22.80
2019-02-26T13:42:36.758Z,23.10
2019-02-26T13:45:17.089Z,22.80
2019-02-26T13:47:44.152Z,22.60
2019-02-26T13:50:30.569Z,23.70
2019-02-26T13:53:16.961Z,23.00
2019-02-26T13:56:03.705Z,23.20
2019-02-26T13:58:50.403Z,22.20
2019-02-26T14:01:17.948Z,21.40
2019-02-26T14:03:44.986Z,22.10
2019-02-26T14:06:31.651Z,22.60
2019-02-26T14:09:18.161Z,23.20
2019-02-26T14:12:04.949Z,24.20
2019-02-26T14:14:51.328Z,24.00
2019-02-26T14:17:37.789Z,21.60
2019-02-26T14:20:26.155Z,22.20
2019-02-26T14:23:12.635Z,22.90
2019-02-26T14:28:45.637Z,24.90
2019-02-26T14:31:32.305Z,26.00
2019-02-26T14:34:19.384Z,25.90
2019-02-26T14:37:05.802Z,23.60
2019-02-26T14:39:52.193Z,24.70
2019-02-26T14:42:38.697Z,24.50
2019-02-26T14:45:17.981Z,26.10
2019-02-26T14:47:58.173Z,24.80
2019-02-26T14:50:38.394Z,24.30
2019-02-26T14:53:18.574Z,23.10
2019-02-26T14:55:58.713Z,24.40
2019-02-26T14:58:37.918Z,24.40
2019-02-26T15:01:18.022Z,24.00
2019-02-26T15:03:58.067Z,23.90
2019-02-26T15:06:38.025Z,23.00
2019-02-26T15:09:18.378Z,24.10
2019-02-26T15:11:58.367Z,23.30
2019-02-26T15:14:38.426Z,23.50
2019-02-26T15:17:18.632Z,24.30
2019-02-26T15:19:58.551Z,23.80
2019-02-26T15:22:38.422Z,24.40
2019-02-26T15:25:18.798Z,23.70
2019-02-26T15:28:04.999Z,23.80
2019-02-26T15:30:39.930Z,23.20
2019-02-26T15:33:19.884Z,21.80
2019-02-26T15:35:59.945Z,22.30
2019-02-26T15:38:40.138Z,22.90
2019-02-26T15:41:28.582Z,23.90
2019-02-26T15:44:15.012Z,23.80
2019-02-26T15:47:02.277Z,24.00
2019-02-26T15:49:49.921Z,23.80
2019-02-26T15:52:38.362Z,22.30
2019-02-26T15:55:25.872Z,22.10
2019-02-26T15:58:13.144Z,21.00
2019-02-26T16:00:59.652Z,19.60
2019-02-26T16:03:46.680Z,18.60
2019-02-26T16:09:21.130Z,16.20
2019-02-26T16:12:07.549Z,15.90
2019-02-26T16:14:53.985Z,15.60
2019-02-26T16:20:26.886Z,15.10
2019-02-26T16:23:13.590Z,15.20
2019-02-26T16:25:59.998Z,14.70
2019-02-26T16:28:46.646Z,14.40
2019-02-26T16:31:33.418Z,14.20
2019-02-26T16:34:20.588Z,14.00
2019-02-26T16:37:09.021Z,13.60
2019-02-26T16:39:56.045Z,13.20
2019-02-26T16:48:25.007Z,12.60
2019-02-26T16:51:04.547Z,12.30
2019-02-26T16:53:44.918Z,11.80
2019-02-26T16:56:24.729Z,11.30
2019-02-26T16:59:07.392Z,11.20
2019-02-26T17:01:47.461Z,11.10
2019-02-26T17:04:27.547Z,10.80
2019-02-26T17:07:07.417Z,10.80
2019-02-26T17:09:47.370Z,10.70
2019-02-26T17:12:29.133Z,11.00
2019-02-26T17:15:09.669Z,10.70
2019-02-26T17:17:49.760Z,11.90
2019-02-26T17:20:29.158Z,9.50
2019-02-26T17:23:09.145Z,9.30
2019-02-26T17:25:36.141Z,9.40
2019-02-26T17:28:23.057Z,10.20
2019-02-26T17:31:09.729Z,9.00
2019-02-26T17:33:36.773Z,8.90
2019-02-26T17:36:23.336Z,9.10
2019-02-26T17:39:09.795Z,9.20
2019-02-26T17:41:36.647Z,8.40
2019-02-26T17:44:24.947Z,8.50
2019-02-26T17:47:11.632Z,8.50
2019-02-26T17:49:58.085Z,8.40
2019-02-26T17:52:44.805Z,8.10
2019-02-26T17:55:31.326Z,7.80
2019-02-26T17:58:17.845Z,8.20
2019-02-26T18:01:04.852Z,8.20
2019-02-26T18:03:51.592Z,7.80
2019-02-26T18:06:38.098Z,7.80
2019-02-26T18:09:24.756Z,8.70
2019-02-26T18:12:11.154Z,7.20
2019-02-26T18:14:58.285Z,7.00
2019-02-26T18:17:44.819Z,7.00
2019-02-26T18:20:31.309Z,7.70
2019-02-26T18:23:18.052Z,7.10
2019-02-26T18:26:04.480Z,6.90
2019-02-26T18:28:53.093Z,6.70
2019-02-26T18:34:26.940Z,6.40
2019-02-26T18:37:13.741Z,7.70
2019-02-26T18:40:00.574Z,6.30
2019-02-26T18:42:47.091Z,5.90
2019-02-26T18:48:15.088Z,5.90
2019-02-26T18:50:54.245Z,6.00
2019-02-26T18:53:34.339Z,5.60
2019-02-26T18:59:04.055Z,6.00
2019-02-26T19:07:59.989Z,5.70
2019-02-26T19:10:40.161Z,5.60
2019-02-26T19:13:20.133Z,5.60
2019-02-26T19:16:00.359Z,7.80
2019-02-26T19:18:40.581Z,7.40
2019-02-26T19:21:21.833Z,5.40
2019-02-26T19:24:04.177Z,5.10
2019-02-26T19:26:44.512Z,5.40
2019-02-26T19:29:12.959Z,5.20
2019-02-26T19:31:59.614Z,5.20
2019-02-26T19:34:46.050Z,4.80
2019-02-26T19:37:32.642Z,5.10
2019-02-26T19:40:20.328Z,5.90
2019-02-26T19:43:06.743Z,5.00
2019-02-26T19:45:46.170Z,4.70
2019-02-26T19:48:30.417Z,4.90
2019-02-26T19:51:07.454Z,4.70
2019-02-26T19:53:47.790Z,4.70
2019-02-26T19:56:27.550Z,5.30
2019-02-26T19:58:54.326Z,4.70
2019-02-26T20:01:41.002Z,4.50
2019-02-26T20:04:27.672Z,4.50
2019-02-26T20:07:14.357Z,4.40
2019-02-26T20:10:00.789Z,4.40
2019-02-26T20:12:47.440Z,4.40
2019-02-26T20:15:34.210Z,4.10
2019-02-26T20:21:09.501Z,4.40
2019-02-26T20:26:42.709Z,4.30
2019-02-26T20:29:09.514Z,4.00
2019-02-26T20:31:56.317Z,4.30
2019-02-26T20:34:45.240Z,3.60
2019-02-26T20:43:06.264Z,3.80
2019-02-26T20:45:45.733Z,4.70
2019-02-26T20:48:25.783Z,3.60
2019-02-26T20:51:05.845Z,3.70
2019-02-26T20:53:46.249Z,3.70
2019-02-26T20:56:28.517Z,3.50
2019-02-26T20:59:08.365Z,4.30
2019-02-26T21:01:49.550Z,3.10
2019-02-26T21:04:29.561Z,3.50
2019-02-26T21:07:09.619Z,3.70
2019-02-26T21:09:49.561Z,3.40
2019-02-26T21:12:29.783Z,3.50
2019-02-26T21:15:13.630Z,3.30
2019-02-26T21:17:51.952Z,2.40
2019-02-26T21:20:31.879Z,2.50
2019-02-26T21:23:11.882Z,3.30
2019-02-26T21:25:52.266Z,3.30
2019-02-26T21:28:33.681Z,3.40
2019-02-26T21:31:13.950Z,4.50
2019-02-26T21:33:53.120Z,3.50
2019-02-26T21:36:33.238Z,3.80
2019-02-26T21:39:13.391Z,4.00
2019-02-26T21:41:55.597Z,3.70
2019-02-26T21:44:36.013Z,3.90
2019-02-26T21:47:15.246Z,3.90
2019-02-26T21:49:55.424Z,4.10
2019-02-26T21:52:35.625Z,4.00
2019-02-26T21:55:15.696Z,4.00
2019-02-26T21:57:55.721Z,4.10
2019-02-26T22:00:36.762Z,4.20
2019-02-26T22:03:17.673Z,4.20
2019-02-26T22:06:04.979Z,4.00
2019-02-26T22:08:39.033Z,3.80
2019-02-26T22:11:18.510Z,3.90
2019-02-26T22:13:59.946Z,3.90
2019-02-26T22:16:43.063Z,3.80
2019-02-26T22:19:22.804Z,3.70
2019-02-26T22:22:02.791Z,3.50
2019-02-26T22:24:42.966Z,3.40
2019-02-26T22:27:22.761Z,3.80
2019-02-26T22:30:03.003Z,3.40
2019-02-26T22:32:42.820Z,3.30
2019-02-26T22:35:25.572Z,3.20
2019-02-26T22:38:03.543Z,4.30
2019-02-26T22:40:43.275Z,3.10
2019-02-26T22:43:23.374Z,3.10
2019-02-26T22:46:03.478Z,3.10
2019-02-26T22:48:46.559Z,5.10
2019-02-26T22:51:25.101Z,3.10
2019-02-26T22:54:05.162Z,3.20
2019-02-26T22:56:45.537Z,4.70
2019-02-26T22:59:25.622Z,3.40
2019-02-26T23:02:08.552Z,3.50
2019-02-26T23:04:46.097Z,3.10
2019-02-26T23:07:26.230Z,3.50
2019-02-26T23:10:05.582Z,3.50
2019-02-26T23:12:44.897Z,3.50
2019-02-26T23:15:25.161Z,3.50
2019-02-26T23:17:52.121Z,3.40
2019-02-26T23:20:42.509Z,3.40
2019-02-26T23:23:27.269Z,3.60
2019-02-26T23:26:14.065Z,4.10
2019-02-26T23:29:00.879Z,3.70
2019-02-26T23:34:34.447Z,3.70
2019-02-26T23:37:20.853Z,3.80
2019-02-26T23:40:07.678Z,3.00
2019-02-26T23:42:54.381Z,3.30
2019-02-26T23:45:34.449Z,3.70
2019-02-26T23:48:14.341Z,3.80
2019-02-26T23:50:54.325Z,3.70
2019-02-26T23:53:34.649Z,3.70
2019-02-26T23:56:16.762Z,3.50
2019-02-26T23:58:56.583Z,2.50
